Time;durP1;ratioP1;P1;durP2;ratioP2;P2;SDS_P1;SDS_P2;PMS_P1;PMS_P2;Temp;Humidity;BMP_temperature;BMP_pressure;BME280_temperature;BME280_humidity;BME280_pressure;Samples;Min_cycle;Max_cycle;Signal;HPM_P1;HPM_P2
2022/12/23 00:00:42;;;;;;;;;;;;;;;-4.67;73.01;97134.09;6273103;28;20302;-67
2022/12/23 00:03:43;;;;;;;;;;;;;;;-4.78;73.69;97123.81;6273145;28;20018;-67
2022/12/23 00:06:44;;;;;;;;;;;;;;;-4.98;73.75;97111.00;6273485;28;20394;-67
2022/12/23 00:09:47;;;;;;;;;;;;;;;-4.93;74.11;97118.69;6272948;28;19920;-67
2022/12/23 00:16:13;;;;;;;;;;;;;;;-5.01;74.69;97103.31;6271532;28;20457;-67
2022/12/23 00:19:14;;;;;;;;;;;;;;;-5.06;75.24;97099.03;6272501;28;20401;-69
2022/12/23 00:22:15;;;;;;;;;;;;;;;-5.09;74.92;97104.16;6271814;28;19921;-68
2022/12/23 00:25:39;;;;;;;;;;;;;;;-5.06;75.44;97104.16;6272491;28;20305;-67
2022/12/23 00:28:42;;;;;;;;;;;;;;;-5.06;74.92;97099.03;6272374;28;20019;-68
2022/12/23 00:31:45;;;;;;;;;;;;;;;-5.06;75.49;97099.88;6272407;28;20007;-68
2022/12/23 00:34:49;;;;;;;;;;;;;;;-5.07;75.37;97084.47;6272137;28;19921;-68
2022/12/23 00:37:54;;;;;;;;;;;;;;;-5.04;75.05;97087.91;6272219;28;19920;-67
2022/12/23 00:44:17;;;;;;;;;;;;;;;-4.69;75.12;97058.78;6271923;28;19927;-68
2022/12/23 00:50:40;;;;;;;;;;;;;;;-4.21;73.86;97072.34;6271932;28;19921;-68
2022/12/23 00:53:43;;;;;;;;;;;;;;;-4.08;73.51;97074.00;6271753;28;19967;-67
2022/12/23 00:56:44;;;;;;;;;;;;;;;-3.90;72.50;97072.22;6289491;28;20404;-67
2022/12/23 00:59:50;;;;;;;;;;;;;;;-3.80;71.53;97063.56;6296703;28;19927;-67
2022/12/23 01:06:12;;;;;;;;;;;;;;;-3.67;70.58;97059.25;6295695;28;19924;-67
2022/12/23 01:09:14;;;;;;;;;;;;;;;-3.69;70.68;97064.38;6296060;28;20070;-68
2022/12/23 01:12:18;;;;;;;;;;;;;;;-3.67;70.57;97064.38;6295476;28;20018;-68
2022/12/23 01:15:19;;;;;;;;;;;;;;;-3.59;69.90;97061.75;6295637;28;19927;-68
2022/12/23 01:18:20;;;;;;;;;;;;;;;-3.59;70.08;97054.03;6295601;28;19920;-67
2022/12/23 01:21:21;;;;;;;;;;;;;;;-3.68;70.31;97055.81;6295688;28;19920;-67
2022/12/23 01:24:29;;;;;;;;;;;;;;;-3.61;70.05;97074.63;6295590;28;20009;-67
2022/12/23 01:27:33;;;;;;;;;;;;;;;-3.65;69.99;97068.66;6296142;28;19921;-68
2022/12/23 01:30:36;;;;;;;;;;;;;;;-3.69;70.20;97087.53;6295977;28;20061;-68
2022/12/23 01:33:37;;;;;;;;;;;;;;;-3.56;69.95;97069.47;6295992;28;19921;-68
2022/12/23 01:36:38;;;;;;;;;;;;;;;-3.49;69.76;97065.97;6295871;28;20405;-68
2022/12/23 01:39:42;;;;;;;;;;;;;;;-3.54;69.89;97065.16;6296043;28;19920;-68
2022/12/23 01:42:45;;;;;;;;;;;;;;;-3.68;69.83;97066.09;6296098;28;19924;-68
2022/12/23 01:45:49;;;;;;;;;;;;;;;-3.56;69.94;97067.75;6295879;28;20409;-67
2022/12/23 01:48:52;;;;;;;;;;;;;;;-3.69;70.16;97066.94;6295724;28;20301;-66
2022/12/23 01:51:56;;;;;;;;;;;;;;;-3.59;70.41;97061.75;6295366;28;19920;-67
2022/12/23 01:54:59;;;;;;;;;;;;;;;-3.39;69.73;97070.22;6295486;28;19920;-67
2022/12/23 01:58:07;;;;;;;;;;;;;;;-3.31;69.44;97057.25;6295550;28;19920;-67
2022/12/23 02:04:33;;;;;;;;;;;;;;;-3.36;69.63;97064.19;6295822;28;19920;-68
2022/12/23 02:10:57;;;;;;;;;;;;;;;-3.28;69.20;97063.28;6295422;28;19921;-67
2022/12/23 02:17:38;;;;;;;;;;;;;;;-3.23;69.30;97061.53;6300100;28;19921;-68
2022/12/23 02:21:00;;;;;;;;;;;;;;;-3.31;69.69;97063.28;6300268;28;19920;-67
2022/12/23 02:24:18;;;;;;;;;;;;;;;-3.38;70.20;97061.63;6299989;28;19920;-68
2022/12/23 02:27:35;;;;;;;;;;;;;;;-3.12;69.49;97065.72;6300092;28;20302;-68
2022/12/23 02:30:47;;;;;;;;;;;;;;;-3.09;69.67;97063.09;6300050;28;19920;-68
2022/12/23 02:33:59;;;;;;;;;;;;;;;-3.04;69.25;97062.22;6299846;28;19920;-67
2022/12/23 02:37:00;;;;;;;;;;;;;;;-3.01;69.04;97058.75;6300117;28;19928;-67
2022/12/23 02:40:06;;;;;;;;;;;;;;;-2.94;69.11;97063.00;6299118;28;19920;-69
2022/12/23 02:43:10;;;;;;;;;;;;;;;-2.89;68.85;97061.22;6299791;28;19920;-67
2022/12/23 02:46:24;;;;;;;;;;;;;;;-2.91;69.07;97073.28;6299731;28;19927;-68
2022/12/23 02:49:29;;;;;;;;;;;;;;;-2.87;68.86;97058.63;6299643;28;19959;-68
2022/12/23 02:52:34;;;;;;;;;;;;;;;-2.90;68.82;97059.53;6298577;28;19920;-69
2022/12/23 02:55:37;;;;;;;;;;;;;;;-2.95;69.20;97063.84;6299027;28;19920;-69
2022/12/23 02:58:45;;;;;;;;;;;;;;;-2.93;69.65;97072.41;6299325;28;19920;-67
2022/12/23 03:01:48;;;;;;;;;;;;;;;-2.85;69.21;97057.75;6298458;28;19920;-68
2022/12/23 03:04:49;;;;;;;;;;;;;;;-2.89;69.53;97050.91;6297323;28;19927;-68
2022/12/23 03:07:55;;;;;;;;;;;;;;;-2.90;69.42;97044.06;6298903;28;19927;-68
2022/12/23 03:11:07;;;;;;;;;;;;;;;-2.86;69.61;97030.31;6299146;28;19924;-68
2022/12/23 03:14:26;;;;;;;;;;;;;;;-2.88;69.89;97037.19;6298342;28;19935;-68
2022/12/23 03:17:30;;;;;;;;;;;;;;;-2.86;70.26;97030.31;6298985;28;20373;-68
2022/12/23 03:20:40;;;;;;;;;;;;;;;-2.97;70.74;97050.16;6298761;28;19920;-67
2022/12/23 03:23:54;;;;;;;;;;;;;;;-2.83;70.65;97045.72;6298741;28;19920;-67
2022/12/23 03:26:55;;;;;;;;;;;;;;;-2.73;70.00;97052.47;6298576;28;19931;-69
2022/12/23 03:30:16;;;;;;;;;;;;;;;-2.74;70.23;97049.94;6298594;28;19967;-67
2022/12/23 03:33:22;;;;;;;;;;;;;;;-2.66;70.27;97042.13;6298413;28;19920;-67
2022/12/23 03:36:36;;;;;;;;;;;;;;;-2.65;70.06;97064.44;6298568;28;19920;-67
2022/12/23 03:39:48;;;;;;;;;;;;;;;-2.61;70.03;97066.13;6298604;28;19921;-68
2022/12/23 03:42:56;;;;;;;;;;;;;;;-2.54;70.23;97060.03;6297670;28;20420;-67
2022/12/23 03:46:02;;;;;;;;;;;;;;;-2.63;69.67;97070.41;6298077;28;20062;-68
2022/12/23 03:49:11;;;;;;;;;;;;;;;-2.51;69.93;97088.34;6298061;28;19924;-68
2022/12/23 03:52:16;;;;;;;;;;;;;;;-2.56;69.59;97074.66;6297512;28;20386;-67
2022/12/23 03:55:23;;;;;;;;;;;;;;;-2.54;70.43;97070.34;6297684;28;19935;-68
2022/12/23 03:58:33;;;;;;;;;;;;;;;-2.41;70.08;97079.63;6297804;28;19920;-68
2022/12/23 04:01:37;;;;;;;;;;;;;;;-2.36;70.27;97072.72;6297983;28;20493;-68
2022/12/23 04:04:48;;;;;;;;;;;;;;;-2.38;70.18;97082.19;6297707;28;19926;-68
2022/12/23 04:08:05;;;;;;;;;;;;;;;-2.42;70.14;97083.09;6297483;28;20396;-67
2022/12/23 04:11:10;;;;;;;;;;;;;;;-2.53;70.49;97079.78;6297636;28;19920;-69
2022/12/23 04:14:20;;;;;;;;;;;;;;;-2.44;70.25;97102.88;6297598;28;19920;-68
2022/12/23 04:17:23;;;;;;;;;;;;;;;-2.54;69.92;97093.53;6297419;28;19920;-68
2022/12/23 04:20:24;;;;;;;;;;;;;;;-2.52;70.09;97102.09;6296769;28;19927;-68
2022/12/23 04:23:25;;;;;;;;;;;;;;;-2.60;69.85;97099.59;6297276;28;20014;-68
2022/12/23 04:26:28;;;;;;;;;;;;;;;-2.49;70.32;97099.50;6296609;28;19927;-68
2022/12/23 04:29:31;;;;;;;;;;;;;;;-2.50;69.95;97105.50;6297198;28;19927;-67
2022/12/23 04:32:35;;;;;;;;;;;;;;;-2.41;69.63;97115.72;6297419;28;20019;-67
2022/12/23 04:35:39;;;;;;;;;;;;;;;-2.39;69.81;97111.41;6296222;28;19920;-68
2022/12/23 04:38:45;;;;;;;;;;;;;;;-2.43;70.00;97114.91;6296627;28;20009;-68
2022/12/23 04:41:54;;;;;;;;;;;;;;;-2.39;69.92;97123.44;6296458;28;19916;-68
2022/12/23 04:44:55;;;;;;;;;;;;;;;-2.35;69.29;97123.41;6296628;28;19920;-67
2022/12/23 04:47:59;;;;;;;;;;;;;;;-2.36;69.82;97128.56;6296440;28;20386;-68
2022/12/23 04:51:03;;;;;;;;;;;;;;;-2.34;69.72;97122.53;6296601;28;19920;-68
2022/12/23 04:54:10;;;;;;;;;;;;;;;-2.32;69.21;97135.38;6296591;28;19920;-68
2022/12/23 04:57:16;;;;;;;;;;;;;;;-2.29;69.66;97136.25;6296325;28;19926;-68
2022/12/23 05:00:21;;;;;;;;;;;;;;;-2.07;68.88;97131.72;6296431;28;20404;-68
2022/12/23 05:03:24;;;;;;;;;;;;;;;-2.10;68.26;97136.03;6296280;28;19932;-68
2022/12/23 05:06:25;;;;;;;;;;;;;;;-2.01;68.53;97135.91;6295448;28;19927;-68
2022/12/23 05:09:29;;;;;;;;;;;;;;;-2.07;68.80;97138.56;6296365;28;20022;-67
2022/12/23 05:12:31;;;;;;;;;;;;;;;-1.95;67.87;97141.03;6296457;28;20014;-67
2022/12/23 05:15:36;;;;;;;;;;;;;;;-1.93;67.81;97144.44;6294948;28;20401;-68
2022/12/23 05:18:41;;;;;;;;;;;;;;;-2.00;68.31;97157.44;6296291;28;19935;-67
2022/12/23 05:21:44;;;;;;;;;;;;;;;-1.89;68.27;97151.28;6295766;28;20018;-68
2022/12/23 05:24:54;;;;;;;;;;;;;;;-1.89;67.98;97156.44;6295110;28;19925;-68
2022/12/23 05:27:56;;;;;;;;;;;;;;;-1.79;67.51;97164.06;6295490;28;20026;-68
2022/12/23 05:31:04;;;;;;;;;;;;;;;-1.85;67.23;97160.69;6295336;28;20409;-67
2022/12/23 05:34:08;;;;;;;;;;;;;;;-1.78;68.00;97168.34;6295108;28;20015;-69
2022/12/23 05:37:11;;;;;;;;;;;;;;;-1.72;67.96;97171.72;6295340;28;20412;-69
2022/12/23 05:40:15;;;;;;;;;;;;;;;-1.75;67.49;97178.66;6295566;28;20009;-69
2022/12/23 05:43:17;;;;;;;;;;;;;;;-1.72;67.14;97157.97;6295050;28;19925;-68
2022/12/23 05:46:22;;;;;;;;;;;;;;;-1.71;67.19;97173.41;6295428;28;19920;-68
2022/12/23 05:49:25;;;;;;;;;;;;;;;-1.60;66.27;97155.25;6295185;28;19920;-69
2022/12/23 05:52:29;;;;;;;;;;;;;;;-1.64;66.38;97176.81;6299946;28;19920;-68
2022/12/23 05:55:33;;;;;;;;;;;;;;;-1.55;66.30;97181.84;6300716;28;20358;-68
2022/12/23 05:58:37;;;;;;;;;;;;;;;-1.58;66.36;97171.56;6300802;28;19920;-69
2022/12/23 06:01:38;;;;;;;;;;;;;;;-1.56;66.24;97174.97;6300417;28;19921;-68
2022/12/23 06:04:42;;;;;;;;;;;;;;;-1.52;66.50;97174.06;6300473;28;19920;-69
2022/12/23 06:07:46;;;;;;;;;;;;;;;-1.38;65.98;97185.06;6300537;28;19920;-69
2022/12/23 06:10:49;;;;;;;;;;;;;;;-1.17;64.84;97183.06;6300362;28;19920;-68
2022/12/23 06:13:51;;;;;;;;;;;;;;;-1.19;64.83;97185.69;6299928;28;19921;-68
2022/12/23 06:16:57;;;;;;;;;;;;;;;-1.13;65.21;97174.44;6300092;28;19920;-68
2022/12/23 06:20:01;;;;;;;;;;;;;;;-0.84;64.38;97175.72;6300040;28;20348;-68
2022/12/23 06:23:06;;;;;;;;;;;;;;;-0.63;63.65;97165.06;6300298;28;19946;-68
2022/12/23 06:26:07;;;;;;;;;;;;;;;-0.58;63.62;97168.41;6299790;28;20473;-69
2022/12/23 06:29:12;;;;;;;;;;;;;;;-0.34;62.86;97174.06;6299920;28;19997;-70
2022/12/23 06:32:16;;;;;;;;;;;;;;;-0.12;61.99;97164.19;6299743;28;19919;-69
2022/12/23 06:35:20;;;;;;;;;;;;;;;-0.02;61.31;97174.34;6299291;28;20038;-69
2022/12/23 06:38:24;;;;;;;;;;;;;;;0.03;61.28;97176.00;6299480;28;19920;-69
2022/12/23 06:41:28;;;;;;;;;;;;;;;0.29;60.10;97178.13;6299400;28;19916;-69
2022/12/23 06:44:30;;;;;;;;;;;;;;;0.26;60.21;97173.84;6297799;28;20446;-69
2022/12/23 06:47:33;;;;;;;;;;;;;;;0.27;59.55;97180.72;6298989;28;19955;-69
2022/12/23 06:50:35;;;;;;;;;;;;;;;0.35;60.62;97183.16;6298772;28;19931;-69
2022/12/23 06:53:40;;;;;;;;;;;;;;;0.31;60.25;97192.75;6298098;28;19920;-69
2022/12/23 06:56:46;;;;;;;;;;;;;;;0.38;59.86;97177.94;6298737;28;20026;-69
2022/12/23 06:59:50;;;;;;;;;;;;;;;0.49;59.77;97186.34;6298872;28;19920;-68
2022/12/23 07:02:53;;;;;;;;;;;;;;;0.52;59.02;97181.09;6298397;28;19923;-68
2022/12/23 07:05:59;;;;;;;;;;;;;;;0.49;59.96;97180.31;6298660;28;19916;-68
2022/12/23 07:09:03;;;;;;;;;;;;;;;0.55;59.89;97182.78;6298906;28;19971;-68
2022/12/23 07:12:04;;;;;;;;;;;;;;;0.70;58.98;97184.19;6298896;28;20314;-69
2022/12/23 07:15:06;;;;;;;;;;;;;;;0.93;58.09;97186.28;6298307;28;20404;-69
2022/12/23 07:18:10;;;;;;;;;;;;;;;1.22;57.46;97183.03;6298259;28;20062;-68
2022/12/23 07:21:13;;;;;;;;;;;;;;;1.89;56.80;97188.34;6298230;28;19920;-69
2022/12/23 07:24:21;;;;;;;;;;;;;;;2.77;54.43;97194.63;6298819;28;19920;-69
2022/12/23 07:27:26;;;;;;;;;;;;;;;3.65;52.14;97185.03;6298653;28;19973;-68
2022/12/23 07:30:30;;;;;;;;;;;;;;;4.65;49.87;97198.13;6298405;28;20379;-68
2022/12/23 07:33:31;;;;;;;;;;;;;;;5.43;48.04;97196.91;6298238;28;19920;-68
2022/12/23 07:36:34;;;;;;;;;;;;;;;5.42;46.95;97190.00;6298449;28;19921;-68
2022/12/23 07:39:38;;;;;;;;;;;;;;;4.45;47.82;97202.28;6298356;28;20306;-67
2022/12/23 07:42:39;;;;;;;;;;;;;;;3.59;49.74;97199.09;6298198;28;19916;-68
2022/12/23 07:45:40;;;;;;;;;;;;;;;3.40;49.87;97209.25;6298464;28;19920;-69
2022/12/23 07:48:45;;;;;;;;;;;;;;;3.04;50.91;97193.84;6298237;28;20378;-68
2022/12/23 07:51:47;;;;;;;;;;;;;;;2.74;51.52;97213.75;6297994;28;19927;-69
2022/12/23 07:54:51;;;;;;;;;;;;;;;2.56;52.39;97209.94;6297593;28;20057;-68
2022/12/23 07:57:59;;;;;;;;;;;;;;;2.20;53.40;97204.84;6280759;28;19921;-68
2022/12/23 08:01:01;;;;;;;;;;;;;;;1.71;54.05;97213.88;6297993;28;19927;-68
2022/12/23 08:04:07;;;;;;;;;;;;;;;1.04;56.26;97218.00;6297913;28;20308;-69
2022/12/23 08:07:14;;;;;;;;;;;;;;;0.65;57.75;97212.75;6297777;28;19943;-69
2022/12/23 08:10:17;;;;;;;;;;;;;;;0.81;57.67;97214.16;6297822;28;20419;-69
2022/12/23 08:13:24;;;;;;;;;;;;;;;1.56;56.52;97198.69;6296392;28;19942;-68
2022/12/23 08:16:30;;;;;;;;;;;;;;;1.58;55.32;97186.53;6297438;28;20007;-69
2022/12/23 08:19:33;;;;;;;;;;;;;;;1.10;56.77;97153.06;6297268;28;19920;-68
2022/12/23 08:22:39;;;;;;;;;;;;;;;0.98;56.94;97163.72;6297405;28;19920;-68
2022/12/23 08:25:43;;;;;;;;;;;;;;;0.95;57.00;97148.25;6297113;28;19927;-69
2022/12/23 08:28:46;;;;;;;;;;;;;;;1.04;57.36;97138.53;6297387;28;19920;-69
2022/12/23 08:31:49;;;;;;;;;;;;;;;1.41;56.29;97131.63;6297363;28;19920;-69
2022/12/23 08:34:55;;;;;;;;;;;;;;;1.43;55.72;97114.28;6296929;28;19920;-68
2022/12/23 08:37:59;;;;;;;;;;;;;;;1.01;57.04;97122.19;6296208;28;19920;-69
2022/12/23 08:41:06;;;;;;;;;;;;;;;0.86;57.37;97123.41;6296796;28;19932;-69
2022/12/23 08:44:11;;;;;;;;;;;;;;;0.73;58.31;97132.31;6296097;28;19927;-68
2022/12/23 08:47:16;;;;;;;;;;;;;;;0.96;58.07;97121.44;6296708;28;19942;-69
2022/12/23 08:50:20;;;;;;;;;;;;;;;1.34;56.39;97129.19;6296448;28;19921;-69
2022/12/23 08:53:21;;;;;;;;;;;;;;;1.90;55.79;97125.22;6296323;28;19920;-69
2022/12/23 08:56:28;;;;;;;;;;;;;;;4.27;50.31;97122.16;6295556;28;20012;-68
2022/12/23 08:59:34;;;;;;;;;;;;;;;4.25;49.09;97122.22;6295478;28;20007;-69
2022/12/23 09:02:38;;;;;;;;;;;;;;;3.09;51.05;97137.38;6296479;28;20485;-69
2022/12/23 09:05:40;;;;;;;;;;;;;;;2.45;52.93;97123.69;6296244;28;19921;-69
2022/12/23 09:08:42;;;;;;;;;;;;;;;1.84;54.28;97120.16;6295764;28;19926;-69
2022/12/23 09:11:44;;;;;;;;;;;;;;;1.51;55.89;97130.53;6295955;28;20416;-69
2022/12/23 09:14:51;;;;;;;;;;;;;;;1.39;55.72;97134.28;6296288;28;19924;-69
2022/12/23 09:17:52;;;;;;;;;;;;;;;1.14;56.63;97144.38;6296141;28;20013;-69
2022/12/23 09:21:06;;;;;;;;;;;;;;;1.17;56.86;97141.69;6296088;28;20313;-69
2022/12/23 09:24:09;;;;;;;;;;;;;;;0.97;57.34;97167.22;6296070;28;19927;-69
2022/12/23 09:27:12;;;;;;;;;;;;;;;1.10;57.21;97159.13;6295988;28;20382;-69
2022/12/23 09:30:16;;;;;;;;;;;;;;;1.06;57.61;97174.78;6295307;28;19920;-69
2022/12/23 09:33:22;;;;;;;;;;;;;;;1.00;57.95;97167.16;6295985;28;20421;-69
2022/12/23 09:36:25;;;;;;;;;;;;;;;1.01;57.91;97184.38;6295120;28;20301;-70
2022/12/23 09:39:31;;;;;;;;;;;;;;;1.03;57.82;97177.44;6296010;28;19920;-68
2022/12/23 09:42:55;;;;;;;;;;;;;;;1.01;57.94;97199.94;6295667;28;19920;-69
2022/12/23 09:46:07;;;;;;;;;;;;;;;0.89;58.29;97196.72;6295778;28;20010;-69
2022/12/23 09:49:14;;;;;;;;;;;;;;;1.05;58.26;97199.00;6295844;28;19920;-69
2022/12/23 09:52:24;;;;;;;;;;;;;;;1.06;57.85;97203.28;6295799;28;19920;-69
2022/12/23 09:55:43;;;;;;;;;;;;;;;1.07;58.28;97203.22;6294899;28;20018;-69
2022/12/23 09:58:54;;;;;;;;;;;;;;;0.95;58.00;97215.63;6295675;28;19920;-69
2022/12/23 10:02:07;;;;;;;;;;;;;;;0.87;58.97;97221.81;6295575;28;19927;-68
2022/12/23 10:05:10;;;;;;;;;;;;;;;1.02;58.64;97223.25;6295685;28;20011;-69
2022/12/23 10:08:30;;;;;;;;;;;;;;;1.23;58.16;97229.69;6295515;28;19927;-69
2022/12/23 10:11:38;;;;;;;;;;;;;;;1.06;58.19;97244.75;6295599;28;19920;-69
2022/12/23 10:14:43;;;;;;;;;;;;;;;1.03;58.53;97250.00;6295305;28;19920;-68
2022/12/23 10:17:48;;;;;;;;;;;;;;;1.28;57.54;97251.19;6294819;28;19963;-69
2022/12/23 10:20:56;;;;;;;;;;;;;;;1.21;57.88;97262.56;6294798;28;19920;-69
2022/12/23 10:24:04;;;;;;;;;;;;;;;1.46;57.82;97272.41;6295112;28;19924;-70
2022/12/23 10:27:21;;;;;;;;;;;;;;;1.62;56.88;97276.34;6295372;28;19962;-69
2022/12/23 10:30:26;;;;;;;;;;;;;;;1.74;56.75;97281.25;6295357;28;20413;-70
2022/12/23 10:33:36;;;;;;;;;;;;;;;1.65;56.90;97297.03;6295154;28;20015;-69
2022/12/23 10:36:57;;;;;;;;;;;;;;;1.52;57.14;97300.78;6296806;28;19962;-69
2022/12/23 10:40:10;;;;;;;;;;;;;;;1.66;57.16;97298.72;6299875;28;19943;-68
2022/12/23 10:43:18;;;;;;;;;;;;;;;1.54;56.82;97309.38;6299809;28;20324;-69
2022/12/23 10:46:19;;;;;;;;;;;;;;;1.43;57.47;97332.09;6299087;28;20440;-70
2022/12/23 10:49:33;;;;;;;;;;;;;;;1.36;57.65;97326.22;6299559;28;20039;-69
2022/12/23 10:52:38;;;;;;;;;;;;;;;1.25;57.80;97329.03;6299193;28;19982;-69
2022/12/23 10:55:40;;;;;;;;;;;;;;;1.29;57.57;97330.66;6298986;28;19924;-69
2022/12/23 10:58:42;;;;;;;;;;;;;;;1.18;58.30;97332.59;6299406;28;19969;-69
2022/12/23 11:01:47;;;;;;;;;;;;;;;1.05;58.56;97334.59;6298995;28;20008;-69
2022/12/23 11:04:51;;;;;;;;;;;;;;;0.96;58.57;97326.13;6299404;28;20294;-69
2022/12/23 11:07:54;;;;;;;;;;;;;;;1.00;58.69;97328.66;6297850;28;20346;-69
2022/12/23 11:10:58;;;;;;;;;;;;;;;0.93;59.15;97321.88;6298641;28;19927;-69
2022/12/23 11:14:02;;;;;;;;;;;;;;;0.94;59.19;97312.38;6298795;28;19931;-69
2022/12/23 11:17:18;;;;;;;;;;;;;;;0.76;59.65;97324.78;6298772;28;19928;-69
2022/12/23 11:20:20;;;;;;;;;;;;;;;0.81;59.51;97312.59;6298841;28;20011;-69
2022/12/23 11:23:26;;;;;;;;;;;;;;;0.69;60.00;97335.31;6298891;28;20298;-69
2022/12/23 11:26:30;;;;;;;;;;;;;;;0.60;60.60;97336.31;6298710;28;19919;-69
2022/12/23 11:29:35;;;;;;;;;;;;;;;0.44;60.79;97336.56;6298449;28;19926;-68
2022/12/23 11:32:36;;;;;;;;;;;;;;;0.38;60.87;97351.38;6298880;28;19920;-69
2022/12/23 11:35:38;;;;;;;;;;;;;;;0.28;61.71;97358.41;6298565;28;19974;-69
2022/12/23 11:38:51;;;;;;;;;;;;;;;0.39;61.28;97360.84;6298447;28;19920;-69
2022/12/23 11:42:01;;;;;;;;;;;;;;;0.18;61.26;97356.88;6297948;28;20439;-70
2022/12/23 11:45:06;;;;;;;;;;;;;;;0.31;61.42;97360.09;6298095;28;19993;-68
2022/12/23 11:48:35;;;;;;;;;;;;;;;0.30;61.37;97353.22;6298191;28;19920;-69
2022/12/23 11:51:38;;;;;;;;;;;;;;;0.20;61.40;97352.53;6289932;28;20312;-69
2022/12/23 11:54:48;;;;;;;;;;;;;;;0.28;61.44;97353.25;6297786;28;19920;-68
2022/12/23 11:57:55;;;;;;;;;;;;;;;0.29;61.70;97375.69;6296218;28;19927;-69
2022/12/23 12:01:05;;;;;;;;;;;;;;;0.22;61.94;97368.88;6297835;28;20397;-68
2022/12/23 12:04:08;;;;;;;;;;;;;;;0.14;62.25;97375.91;6297795;28;20019;-68
2022/12/23 12:07:12;;;;;;;;;;;;;;;0.03;62.48;97372.63;6296977;28;20061;-69
2022/12/23 12:10:21;;;;;;;;;;;;;;;0.21;62.42;97382.69;6297176;28;19920;-70
2022/12/23 12:13:27;;;;;;;;;;;;;;;0.06;62.64;97394.16;6296788;28;20333;-69
2022/12/23 12:20:38;;;;;;;;;;;;;;;0.14;62.72;97401.78;6297208;28;19920;-68
2022/12/23 12:23:43;;;;;;;;;;;;;;;0.26;62.45;97396.44;6297111;28;20010;-70
2022/12/23 12:26:49;;;;;;;;;;;;;;;0.09;62.83;97394.09;6295970;28;20392;-68
2022/12/23 12:29:58;;;;;;;;;;;;;;;0.15;62.49;97391.41;6296661;28;19920;-68
2022/12/23 12:33:03;;;;;;;;;;;;;;;0.29;62.57;97395.53;6297184;28;20014;-69
2022/12/23 12:36:13;;;;;;;;;;;;;;;0.43;62.28;97404.78;6296912;28;19920;-69
2022/12/23 12:39:20;;;;;;;;;;;;;;;0.15;62.61;97408.69;6296766;28;19920;-69
2022/12/23 12:42:33;;;;;;;;;;;;;;;0.21;62.58;97424.13;6296246;28;19920;-70
2022/12/23 12:45:40;;;;;;;;;;;;;;;0.12;63.08;97408.72;6296285;28;19924;-69
2022/12/23 12:48:44;;;;;;;;;;;;;;;0.20;62.74;97430.19;6296199;28;19920;-70
2022/12/23 12:51:51;;;;;;;;;;;;;;;0.05;62.94;97427.78;6296282;28;19921;-68
2022/12/23 12:54:55;;;;;;;;;;;;;;;0.17;63.30;97422.44;6296385;28;19974;-69
2022/12/23 12:58:01;;;;;;;;;;;;;;;0.25;63.05;97430.94;6296569;28;20022;-68
2022/12/23 13:01:16;;;;;;;;;;;;;;;0.10;63.32;97438.94;6295992;28;19924;-68
2022/12/23 13:04:29;;;;;;;;;;;;;;;0.12;63.40;97450.97;6296351;28;20378;-69
2022/12/23 13:07:37;;;;;;;;;;;;;;;0.34;62.96;97455.81;6295786;28;20023;-69
2022/12/23 13:10:44;;;;;;;;;;;;;;;0.46;62.82;97454.81;6295628;28;20015;-69
2022/12/23 13:14:06;;;;;;;;;;;;;;;0.25;63.35;97456.81;6296353;28;20389;-68
2022/12/23 13:17:18;;;;;;;;;;;;;;;0.18;63.77;97455.22;6296014;28;19920;-69
2022/12/23 13:20:19;;;;;;;;;;;;;;;-0.07;64.01;97465.91;6295724;28;20428;-69
2022/12/23 13:23:44;;;;;;;;;;;;;;;0.02;63.99;97474.41;6296073;28;19920;-70
2022/12/23 13:26:48;;;;;;;;;;;;;;;0.05;64.70;97479.53;6295817;28;20392;-70
2022/12/23 13:29:55;;;;;;;;;;;;;;;0.13;64.54;97470.78;6295838;28;19920;-69
2022/12/23 13:33:03;;;;;;;;;;;;;;;0.06;64.80;97470.88;6295913;28;19928;-69
2022/12/23 13:36:13;;;;;;;;;;;;;;;0.11;64.51;97474.28;6295858;28;19920;-70
2022/12/23 13:39:29;;;;;;;;;;;;;;;0.14;64.93;97474.22;6295367;28;20329;-69
2022/12/23 13:42:39;;;;;;;;;;;;;;;0.03;64.94;97465.75;6295953;28;20301;-69
2022/12/23 13:45:41;;;;;;;;;;;;;;;0.05;65.30;97479.53;6295810;28;19920;-69
2022/12/23 13:48:53;;;;;;;;;;;;;;;-0.08;65.58;97489.22;6295964;28;19924;-69
2022/12/23 13:51:59;;;;;;;;;;;;;;;-0.17;66.16;97487.59;6294768;28;20364;-69
2022/12/23 13:55:13;;;;;;;;;;;;;;;-0.11;66.25;97490.09;6294000;28;19920;-69
2022/12/23 13:58:17;;;;;;;;;;;;;;;0.03;65.62;97489.94;6294542;28;19926;-69
2022/12/23 14:01:53;;;;;;;;;;;;;;;-0.02;65.95;97489.13;6295495;28;19920;-70
2022/12/23 14:04:54;;;;;;;;;;;;;;;-0.11;65.96;97484.94;6262124;28;20098;-69
2022/12/23 14:08:01;;;;;;;;;;;;;;;-0.09;66.21;97493.50;6295451;28;19920;-69
2022/12/23 14:11:23;;;;;;;;;;;;;;;-0.03;66.12;97488.28;6295749;28;19943;-69
2022/12/23 14:14:24;;;;;;;;;;;;;;;0.13;65.36;97512.19;6289650;28;19920;-68
2022/12/23 14:17:34;;;;;;;;;;;;;;;-0.09;65.91;97509.03;6300052;28;20005;-70
2022/12/23 14:20:50;;;;;;;;;;;;;;;-0.13;65.81;97497.00;6300430;28;20281;-69
2022/12/23 14:24:12;;;;;;;;;;;;;;;0.02;65.49;97501.13;6300436;28;19920;-69
2022/12/23 14:27:19;;;;;;;;;;;;;;;-0.10;65.37;97491.81;6300281;28;20017;-69
2022/12/23 14:30:30;;;;;;;;;;;;;;;0.03;65.06;97497.69;6298476;28;19928;-69
2022/12/23 14:33:37;;;;;;;;;;;;;;;-0.03;65.11;97492.56;6299886;28;20013;-68
2022/12/23 14:37:00;;;;;;;;;;;;;;;-0.07;64.77;97502.09;6299873;28;19920;-70
2022/12/23 14:40:20;;;;;;;;;;;;;;;0.10;64.73;97488.09;6299461;28;20001;-69
2022/12/23 14:43:21;;;;;;;;;;;;;;;0.05;64.62;97485.56;6297535;28;19990;-69
2022/12/23 14:46:34;;;;;;;;;;;;;;;0.01;64.32;97483.06;6299428;28;19920;-70
2022/12/23 14:49:42;;;;;;;;;;;;;;;-0.14;65.03;97507.38;6298971;28;19947;-69
2022/12/23 14:52:47;;;;;;;;;;;;;;;-0.09;64.90;97471.97;6298854;28;20336;-70
2022/12/23 14:56:11;;;;;;;;;;;;;;;-0.17;65.28;97453.09;6299170;28;19920;-69
2022/12/23 14:59:15;;;;;;;;;;;;;;;-0.20;64.83;97468.66;6268253;28;19936;-69
2022/12/23 15:02:21;;;;;;;;;;;;;;;-0.28;65.34;97450.66;6299393;28;19924;-69
2022/12/23 15:05:25;;;;;;;;;;;;;;;-0.42;65.11;97443.09;6299171;28;19923;-69
2022/12/23 15:08:30;;;;;;;;;;;;;;;-0.41;66.11;97442.19;6299084;28;20348;-69
2022/12/23 15:11:33;;;;;;;;;;;;;;;-0.57;66.43;97441.50;6298957;28;19926;-70
2022/12/23 15:14:49;;;;;;;;;;;;;;;-0.46;66.37;97457.75;6298812;28;19921;-69
2022/12/23 15:18:04;;;;;;;;;;;;;;;-0.46;65.54;97457.75;6298931;28;20397;-69
2022/12/23 15:21:09;;;;;;;;;;;;;;;-0.44;66.45;97464.66;6298821;28;19920;-69
2022/12/23 15:24:12;;;;;;;;;;;;;;;-0.46;66.42;97451.72;6298471;28;19994;-69
2022/12/23 15:27:17;;;;;;;;;;;;;;;-0.46;66.27;97462.06;6298429;28;19920;-69
2022/12/23 15:30:22;;;;;;;;;;;;;;;-0.54;66.24;97454.44;6298614;28;20285;-69
2022/12/23 15:33:27;;;;;;;;;;;;;;;-0.60;66.81;97454.47;6297841;28;20022;-70
2022/12/23 15:36:39;;;;;;;;;;;;;;;-0.39;66.44;97468.03;6298280;28;19920;-69
2022/12/23 15:39:43;;;;;;;;;;;;;;;-0.62;67.17;97474.34;6297893;28;19920;-69
2022/12/23 15:42:48;;;;;;;;;;;;;;;-0.44;67.43;97480.16;6298349;28;20066;-69
2022/12/23 15:45:51;;;;;;;;;;;;;;;-0.37;66.99;97497.31;6298222;28;19920;-69
2022/12/23 15:48:56;;;;;;;;;;;;;;;-0.52;67.15;97514.69;6297888;28;19920;-69
2022/12/23 15:52:00;;;;;;;;;;;;;;;-0.39;67.29;97522.34;6297623;28;19920;-69
2022/12/23 15:55:27;;;;;;;;;;;;;;;-0.49;67.50;97518.97;6297452;28;19925;-70
2022/12/23 15:58:31;;;;;;;;;;;;;;;-0.41;67.80;97518.91;6297016;28;19927;-69
2022/12/23 16:01:37;;;;;;;;;;;;;;;-0.41;67.29;97511.16;6297674;28;19926;-69
2022/12/23 16:04:38;;;;;;;;;;;;;;;-0.45;67.52;97512.94;6297692;28;20328;-70
2022/12/23 16:07:42;;;;;;;;;;;;;;;-0.73;68.15;97515.78;6297377;28;19919;-69
2022/12/23 16:10:55;;;;;;;;;;;;;;;-0.47;68.38;97523.25;6297850;28;19920;-69
2022/12/23 16:14:20;;;;;;;;;;;;;;;-0.48;67.96;97531.91;6297609;28;20376;-68
2022/12/23 16:17:42;;;;;;;;;;;;;;;-0.26;67.36;97531.66;6297447;28;20001;-70
2022/12/23 16:20:52;;;;;;;;;;;;;;;-0.39;67.34;97535.28;6297651;28;19920;-68
2022/12/23 16:24:18;;;;;;;;;;;;;;;-0.40;68.08;97533.53;6297147;28;19920;-70
2022/12/23 16:27:26;;;;;;;;;;;;;;;-0.40;67.43;97528.38;6297214;28;19928;-68
2022/12/23 16:30:30;;;;;;;;;;;;;;;-0.22;66.76;97538.53;6297014;28;20347;-69
2022/12/23 16:33:35;;;;;;;;;;;;;;;-0.13;66.29;97532.38;6296800;28;19920;-69
2022/12/23 16:36:36;;;;;;;;;;;;;;;-0.21;66.91;97540.22;6296457;28;19920;-69
2022/12/23 16:39:43;;;;;;;;;;;;;;;-0.43;66.86;97538.75;6296838;28;19927;-69
2022/12/23 16:42:47;;;;;;;;;;;;;;;-0.19;66.63;97542.81;6296157;28;19916;-69